Startpagina
METAR-TAF:

METAR-TAF

Vliegvelden :

Xi'an, China

Internationale luchthaven Xi'an Xianyang

breedte: 34-26N, lengte: 108-45E, hoogte: 479 m

Actueel weer

Dit bericht is 19 minuten geleden gemaakt, om 06:00 UTC
Wind 4 kt uit het noordnoordoosten
Temperatuur 4°C
Vochtigheid 38%
Druk 1024 hPa
Zicht 10 km of meer
geen wolken onder 1500 m en geen cumulonimbus

METAR: ZLXY 180600Z 03002MPS CAVOK 04/M09 Q1024 NOSIG

Tijdstip: 14:19 (06:19 UTC)

Verwachting

Dit bericht is 3 uur en het 18 minuten geleden gemaakt, om 03:01 UTC
Verwachting geldig van 18 om 06 UTC tot 19 om 06 UTC
Wind 6 kt uit het oostnoordoosten
Zicht: 3000 m
Heiigheid

TAF: ZLXY 180301Z 1806/1906 06003MPS 3000 HZ NSC TX05/1807Z TNM05/23Z

Waarnemingen en weersverwachtingen van meer dan 4000 vliegvelden (METAR en TAF).

De beschikbare stations zijn de gele en rode punten op de kaart.

Ga met uw muis naar het station om de naam te zien.

Klik dan om waarnemingen en weersverwachtingen te zien.

kaart wijzigen: klik op de groene knoppen met een zwart kruis om in te zoomen, op de groene knop met een streepje om uit te zoomen of op de groene pijlen voor aangrenzende kaarten.


METAR-TAF: